createdAt,value
2024-01-05T00:01:40.268Z,0.60
2024-01-05T00:04:08.404Z,0.60
2024-01-05T00:06:38.778Z,0.60
2024-01-05T00:09:07.596Z,0.60
2024-01-05T00:11:36.277Z,0.60
2024-01-05T00:14:05.911Z,0.60
2024-01-05T00:16:34.064Z,0.60
2024-01-05T00:19:02.266Z,0.60
2024-01-05T00:21:30.715Z,0.60
2024-01-05T00:23:59.091Z,0.50
2024-01-05T00:26:27.338Z,0.50
2024-01-05T00:28:55.479Z,0.50
2024-01-05T00:31:24.956Z,0.50
2024-01-05T00:33:53.154Z,0.50
2024-01-05T00:36:21.295Z,0.50
2024-01-05T00:38:50.261Z,0.50
2024-01-05T00:41:18.366Z,0.50
2024-01-05T00:43:46.450Z,0.50
2024-01-05T00:46:15.868Z,0.50
2024-01-05T00:48:45.389Z,0.40
2024-01-05T00:51:13.652Z,0.40
2024-01-05T00:53:41.873Z,0.40
2024-01-05T00:56:09.992Z,0.40
2024-01-05T00:58:38.181Z,0.40
2024-01-05T01:01:09.972Z,0.40
2024-01-05T01:03:38.312Z,0.40
2024-01-05T01:06:08.000Z,0.50
2024-01-05T01:08:36.084Z,0.50
2024-01-05T01:11:04.811Z,0.50
2024-01-05T01:13:32.929Z,0.50
2024-01-05T01:16:01.023Z,0.50
2024-01-05T01:18:29.416Z,0.50
2024-01-05T01:20:57.624Z,0.50
2024-01-05T01:23:27.112Z,0.50
2024-01-05T01:25:55.228Z,0.40
2024-01-05T01:28:23.401Z,0.40
2024-01-05T01:30:51.526Z,0.40
2024-01-05T01:33:19.708Z,0.40
2024-01-05T01:35:47.979Z,0.40
2024-01-05T01:38:16.038Z,0.40
2024-01-05T01:40:49.152Z,0.40
2024-01-05T01:43:21.836Z,0.40
2024-01-05T01:45:50.418Z,0.40
2024-01-05T01:48:21.435Z,0.40
2024-01-05T01:50:50.990Z,0.40
2024-01-05T01:53:21.335Z,0.30
2024-01-05T01:55:51.993Z,0.40
2024-01-05T01:58:21.898Z,0.40
2024-01-05T02:00:50.710Z,0.30
2024-01-05T02:03:20.024Z,0.30
2024-01-05T02:05:49.950Z,0.30
2024-01-05T02:08:18.601Z,0.30
2024-01-05T02:10:46.671Z,0.30
2024-01-05T02:13:16.555Z,0.30
2024-01-05T02:15:44.760Z,0.30
2024-01-05T02:18:14.642Z,0.30
2024-01-05T02:20:45.825Z,0.30
2024-01-05T02:23:26.778Z,0.30
2024-01-05T02:25:56.702Z,0.30
2024-01-05T02:28:25.604Z,0.30
2024-01-05T02:30:57.100Z,0.30
2024-01-05T02:33:25.952Z,0.30
2024-01-05T02:35:54.315Z,0.30
2024-01-05T02:38:22.541Z,0.30
2024-01-05T02:40:51.985Z,0.30
2024-01-05T02:43:20.042Z,0.30
2024-01-05T02:45:48.126Z,0.30
2024-01-05T02:48:17.261Z,0.30
2024-01-05T02:50:45.434Z,0.30
2024-01-05T02:53:13.600Z,0.40
2024-01-05T02:55:41.693Z,0.40
2024-01-05T02:58:11.123Z,0.40
2024-01-05T03:00:39.469Z,0.40
2024-01-05T03:03:07.863Z,0.40
2024-01-05T03:05:36.313Z,0.40
2024-01-05T03:08:05.028Z,0.40
2024-01-05T03:10:33.156Z,0.40
2024-01-05T03:13:01.258Z,0.40
2024-01-05T03:15:30.761Z,0.50
2024-01-05T03:18:00.275Z,0.50
2024-01-05T03:20:28.631Z,0.50
2024-01-05T03:22:56.730Z,0.50
2024-01-05T03:25:24.819Z,0.40
2024-01-05T03:27:53.088Z,0.40
2024-01-05T03:30:21.422Z,0.40
2024-01-05T03:32:51.173Z,0.40
2024-01-05T03:35:19.386Z,0.40
2024-01-05T03:37:47.438Z,0.40
2024-01-05T03:40:16.554Z,0.40
2024-01-05T03:42:44.648Z,0.40
2024-01-05T03:45:12.718Z,0.40
2024-01-05T03:47:40.813Z,0.40
2024-01-05T03:50:10.839Z,0.40
2024-01-05T03:52:39.053Z,0.40
2024-01-05T03:55:07.501Z,0.40
2024-01-05T03:57:35.626Z,0.40
2024-01-05T04:00:03.920Z,0.50
2024-01-05T04:02:32.145Z,0.50
2024-01-05T04:05:00.323Z,0.50
2024-01-05T04:07:29.802Z,0.50
2024-01-05T04:09:57.889Z,0.50
2024-01-05T04:12:26.024Z,0.50
2024-01-05T04:14:54.259Z,0.50
2024-01-05T04:17:22.560Z,0.50
2024-01-05T04:19:50.669Z,0.50
2024-01-05T04:22:19.156Z,0.50
2024-01-05T04:24:48.613Z,0.50
2024-01-05T04:27:17.220Z,0.50
2024-01-05T04:29:45.439Z,0.50
2024-01-05T04:32:13.562Z,0.50
2024-01-05T04:34:41.816Z,0.50
2024-01-05T04:37:10.164Z,0.50
2024-01-05T04:39:38.354Z,0.50
2024-01-05T04:42:08.215Z,0.50
2024-01-05T04:44:36.267Z,0.50
2024-01-05T04:47:05.813Z,0.50
2024-01-05T04:49:35.211Z,0.50
2024-01-05T04:52:04.632Z,0.50
2024-01-05T04:54:32.790Z,0.50
2024-01-05T04:57:02.868Z,0.60
2024-01-05T04:59:32.658Z,0.50
2024-01-05T05:02:01.318Z,0.60
2024-01-05T05:04:29.510Z,0.50
2024-01-05T05:06:57.674Z,0.60
2024-01-05T05:09:25.817Z,0.50
2024-01-05T05:11:54.052Z,0.50
2024-01-05T05:14:22.121Z,0.50
2024-01-05T05:16:51.631Z,0.50
2024-01-05T05:19:19.809Z,0.50
2024-01-05T05:21:48.084Z,0.50
2024-01-05T05:24:16.186Z,0.50
2024-01-05T05:26:44.321Z,0.50
2024-01-05T05:29:12.404Z,0.50
2024-01-05T05:31:40.492Z,0.50
2024-01-05T05:34:10.209Z,0.50
2024-01-05T05:36:38.334Z,0.50
2024-01-05T05:39:06.509Z,0.50
2024-01-05T05:41:34.635Z,0.50
2024-01-05T05:44:02.758Z,0.50
2024-01-05T05:46:30.826Z,0.50
2024-01-05T05:48:59.038Z,0.50
2024-01-05T05:51:28.675Z,0.50
2024-01-05T05:53:56.766Z,0.50
2024-01-05T05:56:24.894Z,0.50
2024-01-05T05:58:52.949Z,0.50
2024-01-05T06:01:21.072Z,0.50
2024-01-05T06:03:49.240Z,0.50
2024-01-05T06:06:22.992Z,0.50
2024-01-05T06:08:53.470Z,0.50
2024-01-05T06:11:21.864Z,0.50
2024-01-05T06:13:50.008Z,0.50
2024-01-05T06:16:18.442Z,0.50
2024-01-05T06:18:46.726Z,0.40
2024-01-05T06:21:14.983Z,0.40
2024-01-05T06:23:43.180Z,0.40
2024-01-05T06:26:12.638Z,0.50
2024-01-05T06:28:40.736Z,0.50
2024-01-05T06:31:08.938Z,0.40
2024-01-05T06:33:37.119Z,0.50
2024-01-05T06:36:06.004Z,0.50
2024-01-05T06:38:34.253Z,0.50
2024-01-05T08:08:31.261Z,0.40
2024-01-05T08:10:59.405Z,0.40
2024-01-05T08:13:28.916Z,0.40
2024-01-05T08:15:58.165Z,0.40
2024-01-05T08:18:26.588Z,0.40
2024-01-05T08:20:54.829Z,0.40
2024-01-05T08:23:22.925Z,0.40
2024-01-05T08:25:52.367Z,0.40
2024-01-05T08:28:20.540Z,0.30
2024-01-05T08:30:48.728Z,0.30
2024-01-05T08:33:17.206Z,0.30
2024-01-05T08:35:45.590Z,0.30
2024-01-05T08:38:15.049Z,0.30
2024-01-05T08:40:43.314Z,0.40
2024-01-05T08:43:12.739Z,0.40
2024-01-05T08:45:40.982Z,0.40
2024-01-05T08:48:09.177Z,0.40
2024-01-05T08:50:37.229Z,0.40
2024-01-05T08:53:05.476Z,0.40
2024-01-05T08:55:33.509Z,0.30
2024-01-05T08:58:01.550Z,0.30
2024-01-05T09:00:31.077Z,0.30
2024-01-05T09:02:59.259Z,0.30
2024-01-05T09:05:27.507Z,0.30
2024-01-05T09:07:55.651Z,0.30
2024-01-05T09:10:24.069Z,0.30
2024-01-05T09:12:52.176Z,0.30
2024-01-05T09:15:22.124Z,0.30
2024-01-05T09:17:52.805Z,0.30
2024-01-05T09:20:20.951Z,0.30
2024-01-05T09:22:48.964Z,0.30
2024-01-05T09:25:17.179Z,0.30
2024-01-05T09:27:45.318Z,0.20
2024-01-05T09:30:15.347Z,0.30
2024-01-05T09:32:47.948Z,0.20
2024-01-05T09:35:29.908Z,0.20
2024-01-05T09:38:02.137Z,0.20
2024-01-05T09:40:30.691Z,0.20
2024-01-05T09:43:03.495Z,0.20
2024-01-05T09:45:32.634Z,0.20
2024-01-05T09:48:03.493Z,0.20
2024-01-05T09:50:33.225Z,0.20
2024-01-05T09:53:01.352Z,0.20
2024-01-05T09:55:29.393Z,0.20
2024-01-05T09:57:57.797Z,0.20
2024-01-05T10:00:27.987Z,0.20
2024-01-05T10:02:59.278Z,0.20
2024-01-05T10:05:27.484Z,0.20
2024-01-05T10:07:57.466Z,0.20
2024-01-05T10:10:49.853Z,0.20
2024-01-05T10:13:18.428Z,0.20
2024-01-05T10:15:57.054Z,0.20
2024-01-05T10:18:26.808Z,0.20
2024-01-05T10:20:56.527Z,0.20
2024-01-05T10:23:26.477Z,0.20
2024-01-05T10:25:54.517Z,0.20
2024-01-05T10:28:26.049Z,0.20
2024-01-05T10:30:54.946Z,0.20
2024-01-05T10:33:23.473Z,0.20
2024-01-05T10:35:51.695Z,0.20
2024-01-05T10:38:19.823Z,0.20
2024-01-05T10:40:50.789Z,0.20
2024-01-05T10:43:19.798Z,0.20
2024-01-05T10:45:48.440Z,0.10
2024-01-05T10:48:18.239Z,0.20
2024-01-05T10:50:47.692Z,0.20
2024-01-05T10:53:18.254Z,0.20
2024-01-05T10:55:50.020Z,0.20
2024-01-05T10:58:18.408Z,0.20
2024-01-05T11:00:46.677Z,0.10
2024-01-05T11:03:16.431Z,0.10
2024-01-05T11:05:46.114Z,0.10
2024-01-05T11:08:25.141Z,0.10
2024-01-05T11:11:08.836Z,0.10
2024-01-05T11:13:54.003Z,0.10
2024-01-05T11:16:53.539Z,0.10
2024-01-05T11:19:42.883Z,0.10
2024-01-05T11:22:15.225Z,0.10
2024-01-05T11:24:43.882Z,0.10
2024-01-05T11:27:32.846Z,0.00
2024-01-05T11:30:02.005Z,0.00
2024-01-05T11:32:37.899Z,0.00
2024-01-05T11:35:30.936Z,0.00
2024-01-05T11:37:59.611Z,0.00
2024-01-05T11:40:32.851Z,0.10
2024-01-05T11:43:34.462Z,0.00
2024-01-05T11:46:02.584Z,0.10
2024-01-05T11:48:52.357Z,0.10
2024-01-05T11:51:21.306Z,0.10
2024-01-05T11:53:51.075Z,0.00
2024-01-05T11:56:23.467Z,0.00
2024-01-05T11:58:53.010Z,0.00
2024-01-05T12:01:21.585Z,0.00
2024-01-05T12:03:54.027Z,0.00
2024-01-05T12:06:22.639Z,0.00
2024-01-05T12:08:51.445Z,0.00
2024-01-05T12:11:22.515Z,0.00
2024-01-05T12:13:53.233Z,0.00
2024-01-05T12:16:25.724Z,0.00
2024-01-05T12:18:54.412Z,0.00
2024-01-05T12:21:23.279Z,0.00
2024-01-05T12:23:54.895Z,0.00
2024-01-05T12:26:23.874Z,0.00
2024-01-05T12:28:53.725Z,0.00
2024-01-05T12:31:23.435Z,0.00
2024-01-05T12:33:53.264Z,0.00
2024-01-05T12:36:30.553Z,0.00
2024-01-05T12:39:11.629Z,0.00
2024-01-05T12:41:41.135Z,0.00
2024-01-05T12:44:12.060Z,0.00
2024-01-05T12:46:44.712Z,0.00
2024-01-05T12:49:24.827Z,0.00
2024-01-05T12:51:54.578Z,0.00
2024-01-05T12:54:23.651Z,0.00
2024-01-05T12:56:55.235Z,0.00
2024-01-05T12:59:25.482Z,0.00
2024-01-05T13:02:01.082Z,0.00
2024-01-05T13:04:39.517Z,0.00
2024-01-05T13:07:11.703Z,0.00
2024-01-05T13:09:40.289Z,0.00
2024-01-05T13:12:09.304Z,0.00
2024-01-05T13:14:38.688Z,0.00
2024-01-05T13:17:07.379Z,0.00
2024-01-05T13:19:37.659Z,0.00
2024-01-05T13:22:11.109Z,0.00
2024-01-05T13:24:43.135Z,-0.10
2024-01-05T13:27:13.952Z,0.00
2024-01-05T13:29:45.508Z,0.00
2024-01-05T13:32:13.846Z,0.00
2024-01-05T13:34:42.029Z,0.00
2024-01-05T13:37:10.266Z,0.00
2024-01-05T13:39:40.319Z,0.00
2024-01-05T13:42:08.678Z,0.00
2024-01-05T13:44:37.406Z,0.00
2024-01-05T13:47:06.933Z,0.00
2024-01-05T13:49:35.122Z,0.00
2024-01-05T13:52:04.315Z,0.00
2024-01-05T13:54:35.286Z,0.00
2024-01-05T13:57:04.092Z,0.00
2024-01-05T13:59:35.003Z,0.00
2024-01-05T14:02:03.995Z,0.00
2024-01-05T14:04:33.439Z,0.00
2024-01-05T14:07:01.638Z,0.00
2024-01-05T14:09:29.737Z,0.00
2024-01-05T14:11:57.823Z,0.00
2024-01-05T14:14:25.820Z,0.00
2024-01-05T14:16:54.172Z,0.00
2024-01-05T14:19:22.510Z,0.00
2024-01-05T14:21:51.982Z,0.00
2024-01-05T14:24:20.045Z,0.00
2024-01-05T14:26:48.992Z,0.00
2024-01-05T14:29:18.664Z,0.00
2024-01-05T14:31:47.181Z,0.00
2024-01-05T14:34:15.638Z,0.00
2024-01-05T14:36:43.764Z,0.00
2024-01-05T14:39:13.270Z,0.00
2024-01-05T14:41:41.333Z,0.00
2024-01-05T14:44:09.364Z,0.00
2024-01-05T14:46:37.430Z,0.00
2024-01-05T14:49:06.480Z,0.00
2024-01-05T14:51:34.931Z,0.00
2024-01-05T14:54:03.326Z,0.00
2024-01-05T14:56:33.378Z,0.00
2024-01-05T14:59:02.093Z,0.00
2024-01-05T15:01:30.294Z,0.00
2024-01-05T15:03:58.701Z,0.00
2024-01-05T15:06:27.525Z,0.00
2024-01-05T15:08:56.207Z,0.00
2024-01-05T15:11:24.409Z,0.00
2024-01-05T15:13:53.821Z,0.00
2024-01-05T15:16:22.881Z,0.10
2024-01-05T15:18:51.155Z,0.10
2024-01-05T15:21:28.189Z,0.00
2024-01-05T15:23:56.258Z,0.00
2024-01-05T15:26:24.284Z,0.00
2024-01-05T15:28:55.787Z,0.00
2024-01-05T15:31:24.048Z,0.00
2024-01-05T15:33:55.297Z,0.00
2024-01-05T15:36:25.729Z,0.00
2024-01-05T15:38:55.091Z,0.00
2024-01-05T15:41:24.926Z,0.00
2024-01-05T15:43:57.056Z,0.00
2024-01-05T15:46:28.341Z,0.00
2024-01-05T15:48:59.040Z,0.00
2024-01-05T15:51:31.026Z,0.00
2024-01-05T15:54:01.131Z,0.00
2024-01-05T15:56:29.866Z,0.00
2024-01-05T15:58:59.050Z,0.00
2024-01-05T16:01:28.647Z,0.00
2024-01-05T16:03:56.953Z,-0.10
2024-01-05T16:06:25.224Z,-0.10
2024-01-05T16:08:53.284Z,-0.10
2024-01-05T16:11:29.526Z,-0.10
2024-01-05T16:13:57.689Z,-0.20
2024-01-05T16:16:27.153Z,-0.10
2024-01-05T16:18:56.641Z,-0.20
2024-01-05T16:21:27.096Z,-0.20
2024-01-05T16:23:56.997Z,-0.20
2024-01-05T16:26:26.237Z,-0.20
2024-01-05T16:28:54.667Z,-0.20
2024-01-05T16:31:22.976Z,-0.30
2024-01-05T16:33:52.256Z,-0.30
2024-01-05T16:36:22.445Z,-0.30
2024-01-05T16:38:50.738Z,-0.30
2024-01-05T16:41:24.640Z,-0.40
2024-01-05T16:43:53.130Z,-0.40
2024-01-05T16:46:22.260Z,-0.40
2024-01-05T16:48:53.740Z,-0.40
2024-01-05T16:51:23.879Z,-0.30
2024-01-05T16:53:54.203Z,-0.30
2024-01-05T16:56:26.179Z,-0.40
2024-01-05T16:58:55.846Z,-0.40
2024-01-05T17:01:24.155Z,-0.40
2024-01-05T17:03:54.991Z,-0.40
2024-01-05T17:06:24.577Z,-0.40
2024-01-05T17:08:54.183Z,-0.40
2024-01-05T17:11:23.169Z,-0.50
2024-01-05T17:13:51.231Z,-0.40
2024-01-05T17:16:19.421Z,-0.40
2024-01-05T17:18:49.626Z,-0.40
2024-01-05T17:21:17.875Z,-0.40
2024-01-05T17:23:49.368Z,-0.40
2024-01-05T17:26:17.401Z,-0.40
2024-01-05T17:28:45.511Z,-0.40
2024-01-05T17:31:13.633Z,-0.40
2024-01-05T17:33:41.946Z,-0.50
2024-01-05T17:36:10.309Z,-0.50
2024-01-05T17:38:38.338Z,-0.50
2024-01-05T17:41:07.840Z,-0.50
2024-01-05T17:43:35.867Z,-0.50
2024-01-05T17:46:05.609Z,-0.50
2024-01-05T17:48:33.877Z,-0.50
2024-01-05T17:51:02.894Z,-0.50
2024-01-05T17:53:31.280Z,-0.50
2024-01-05T17:55:59.392Z,-0.50
2024-01-05T17:58:28.940Z,-0.50
2024-01-05T18:00:57.127Z,-0.50
2024-01-05T18:03:26.665Z,-0.50
2024-01-05T18:05:54.847Z,-0.50
2024-01-05T18:08:22.904Z,-0.50
2024-01-05T18:10:50.923Z,-0.50
2024-01-05T18:13:18.948Z,-0.50
2024-01-05T18:15:48.764Z,-0.50
2024-01-05T18:18:18.097Z,-0.50
2024-01-05T18:20:46.440Z,-0.50
2024-01-05T18:23:17.450Z,-0.50
2024-01-05T18:25:46.590Z,-0.50
2024-01-05T18:28:14.607Z,-0.50
2024-01-05T18:30:43.153Z,-0.50
2024-01-05T18:33:12.697Z,-0.50
2024-01-05T18:35:40.915Z,-0.50
2024-01-05T18:38:11.819Z,-0.60
2024-01-05T18:40:40.000Z,-0.50
2024-01-05T18:43:08.040Z,-0.60
2024-01-05T18:45:36.142Z,-0.50
2024-01-05T18:48:04.569Z,-0.60
2024-01-05T18:50:34.077Z,-0.60
2024-01-05T18:53:02.117Z,-0.60
2024-01-05T18:55:30.147Z,-0.60
2024-01-05T18:57:58.185Z,-0.60
2024-01-05T19:00:28.098Z,-0.60
2024-01-05T19:02:56.344Z,-0.60
2024-01-05T19:05:24.669Z,-0.60
2024-01-05T19:07:54.176Z,-0.60
2024-01-05T19:10:22.264Z,-0.60
2024-01-05T19:12:50.332Z,-0.60
2024-01-05T19:15:18.502Z,-0.60
2024-01-05T19:17:46.707Z,-0.70
2024-01-05T19:20:15.103Z,-0.70
2024-01-05T19:22:43.198Z,-0.70
2024-01-05T19:25:12.637Z,-0.70
2024-01-05T19:27:40.962Z,-0.70
2024-01-05T19:30:10.191Z,-0.70
2024-01-05T19:32:38.585Z,-0.70
2024-01-05T19:35:09.054Z,-0.70
2024-01-05T19:37:37.236Z,-0.60
2024-01-05T19:40:06.433Z,-0.50
2024-01-05T19:42:36.838Z,-0.60
2024-01-05T19:45:06.453Z,-0.50
2024-01-05T19:47:34.485Z,-0.50
2024-01-05T19:50:04.965Z,-0.50
2024-01-05T19:52:33.080Z,-0.50
2024-01-05T19:55:04.531Z,-0.50
2024-01-05T19:57:32.840Z,-0.40
2024-01-05T20:00:02.747Z,-0.50
2024-01-05T20:02:30.956Z,-0.50
2024-01-05T20:05:00.533Z,-0.50
2024-01-05T20:07:29.063Z,-0.50
2024-01-05T20:09:58.248Z,-0.40
2024-01-05T20:12:26.410Z,-0.50
2024-01-05T20:14:54.573Z,-0.40
2024-01-05T20:17:24.718Z,-0.40
2024-01-05T20:19:53.000Z,-0.40
2024-01-05T20:22:24.917Z,-0.50
2024-01-05T20:24:53.066Z,-0.50
2024-01-05T20:27:21.180Z,-0.40
2024-01-05T20:29:49.761Z,-0.50
2024-01-05T20:32:18.369Z,-0.40
2024-01-05T20:34:48.367Z,-0.50
2024-01-05T20:37:16.459Z,-0.50
2024-01-05T20:39:45.300Z,-0.50
2024-01-05T20:42:13.447Z,-0.40
2024-01-05T20:44:43.590Z,-0.40
2024-01-05T20:47:11.651Z,-0.50
2024-01-05T20:49:39.853Z,-0.50
2024-01-05T20:52:10.055Z,-0.50
2024-01-05T20:54:38.187Z,-0.50
2024-01-05T20:57:07.621Z,-0.50
2024-01-05T20:59:35.743Z,-0.50
2024-01-05T21:02:04.402Z,-0.50
2024-01-05T21:04:32.571Z,-0.50
2024-01-05T21:07:02.052Z,-0.50
2024-01-05T21:09:31.628Z,-0.40
2024-01-05T21:11:59.836Z,-0.50
2024-01-05T21:14:28.050Z,-0.50
2024-01-05T21:16:56.101Z,-0.50
2024-01-05T21:19:24.683Z,-0.50
2024-01-05T21:21:53.413Z,-0.50
2024-01-05T21:24:21.534Z,-0.50
2024-01-05T21:26:51.874Z,-0.50
2024-01-05T21:29:20.002Z,-0.50
2024-01-05T21:31:49.076Z,-0.50
2024-01-05T21:34:17.969Z,-0.60
2024-01-05T21:36:46.136Z,-0.60
2024-01-05T21:39:17.639Z,-0.50
2024-01-05T21:41:47.688Z,-0.50
2024-01-05T21:44:17.320Z,-0.50
2024-01-05T21:46:45.459Z,-0.50
2024-01-05T21:49:13.658Z,-0.50
2024-01-05T21:51:41.826Z,-0.50
2024-01-05T21:54:10.773Z,-0.60
2024-01-05T21:56:39.646Z,-0.60
2024-01-05T21:59:07.764Z,-0.50
2024-01-05T22:01:37.288Z,-0.50
2024-01-05T22:04:06.412Z,-0.60
2024-01-05T22:06:34.680Z,-0.60
2024-01-05T22:09:02.780Z,-0.60
2024-01-05T22:11:31.007Z,-0.60
2024-01-05T22:13:59.038Z,-0.60
2024-01-05T22:16:27.052Z,-0.50
2024-01-05T22:18:56.662Z,-0.60
2024-01-05T22:21:24.833Z,-0.50
2024-01-05T22:23:53.426Z,-0.50
2024-01-05T22:26:23.819Z,-0.60
2024-01-05T22:28:51.987Z,-0.60
2024-01-05T22:31:20.212Z,-0.60
2024-01-05T22:33:48.434Z,-0.60
2024-01-05T22:36:17.972Z,-0.60
2024-01-05T22:38:46.159Z,-0.60
2024-01-05T22:41:14.742Z,-0.60
2024-01-05T22:43:42.991Z,-0.60
2024-01-05T22:46:15.010Z,-0.70
2024-01-05T22:48:46.390Z,-0.60
2024-01-05T22:51:27.916Z,-0.60
2024-01-05T22:53:56.077Z,-0.60
2024-01-05T22:56:24.178Z,-0.60
2024-01-05T22:58:52.384Z,-0.60
2024-01-05T23:01:21.152Z,-0.60
2024-01-05T23:03:50.361Z,-0.70
2024-01-05T23:06:19.007Z,-0.60
2024-01-05T23:08:48.500Z,-0.70
2024-01-05T23:11:16.625Z,-0.60
2024-01-05T23:13:44.910Z,-0.70
2024-01-05T23:16:13.146Z,-0.60
2024-01-05T23:18:42.793Z,-0.60
2024-01-05T23:21:11.103Z,-0.70
2024-01-05T23:23:40.128Z,-0.70
2024-01-05T23:26:16.364Z,-0.70
2024-01-05T23:28:44.478Z,-0.60
2024-01-05T23:31:12.969Z,-0.70
2024-01-05T23:33:41.442Z,-0.70
2024-01-05T23:36:10.156Z,-0.70
2024-01-05T23:38:38.256Z,-0.60
2024-01-05T23:41:06.505Z,-0.70
2024-01-05T23:43:36.070Z,-0.60
2024-01-05T23:46:04.371Z,-0.60
2024-01-05T23:48:32.694Z,-0.60
2024-01-05T23:51:00.886Z,-0.60
2024-01-05T23:53:29.187Z,-0.60
2024-01-05T23:55:57.317Z,-0.60
2024-01-05T23:58:25.338Z,-0.60
